createdAt,value
2023-03-01T00:01:29.972Z,4.07
2023-03-01T00:03:57.857Z,4.53
2023-03-01T00:06:25.278Z,3.57
2023-03-01T00:08:52.480Z,3.73
2023-03-01T00:11:29.551Z,3.77
2023-03-01T00:13:59.777Z,4.10
2023-03-01T00:16:36.689Z,3.53
2023-03-01T00:19:03.993Z,4.50
2023-03-01T00:21:31.053Z,4.40
2023-03-01T00:23:58.815Z,3.83
2023-03-01T00:26:26.919Z,5.23
2023-03-01T00:28:56.276Z,4.40
2023-03-01T00:31:25.947Z,5.23
2023-03-01T00:33:58.274Z,5.30
2023-03-01T00:36:29.642Z,4.33
2023-03-01T00:38:57.329Z,4.40
2023-03-01T00:41:25.072Z,4.40
2023-03-01T00:43:52.017Z,4.30
2023-03-01T00:46:22.896Z,4.10
2023-03-01T00:48:50.205Z,4.90
2023-03-01T00:51:21.565Z,5.30
2023-03-01T00:53:51.797Z,4.80
2023-03-01T00:56:19.543Z,4.27
2023-03-01T00:58:46.425Z,5.30
2023-03-01T01:01:23.965Z,4.37
2023-03-01T01:03:57.099Z,5.20
2023-03-01T01:06:34.484Z,4.60
2023-03-01T01:09:02.144Z,4.30
2023-03-01T01:11:30.546Z,4.53
2023-03-01T01:13:58.556Z,4.80
2023-03-01T01:16:27.721Z,4.83
2023-03-01T01:18:55.948Z,4.10
2023-03-01T01:21:25.044Z,4.10
2023-03-01T01:23:52.285Z,3.77
2023-03-01T01:26:26.880Z,4.03
2023-03-01T01:28:55.254Z,4.17
2023-03-01T01:31:24.682Z,4.77
2023-03-01T01:33:53.394Z,4.10
2023-03-01T01:36:20.450Z,4.67
2023-03-01T01:38:47.368Z,4.13
2023-03-01T01:41:15.392Z,4.23
2023-03-01T01:43:46.570Z,3.97
2023-03-01T01:46:32.539Z,4.10
2023-03-01T01:49:24.495Z,4.87
2023-03-01T01:51:59.004Z,4.17
2023-03-01T01:54:39.546Z,4.43
2023-03-01T01:57:13.761Z,3.83
2023-03-01T01:59:44.718Z,3.73
2023-03-01T02:02:13.026Z,4.10
2023-03-01T02:04:40.415Z,3.37
2023-03-01T02:07:19.550Z,3.40
2023-03-01T02:09:51.059Z,5.07
2023-03-01T02:12:23.177Z,3.67
2023-03-01T02:14:50.180Z,4.53
2023-03-01T02:17:18.813Z,4.10
2023-03-01T02:20:15.847Z,4.00
2023-03-01T02:22:46.100Z,4.37
2023-03-01T02:25:40.400Z,4.20
2023-03-01T02:28:27.556Z,3.73
2023-03-01T02:31:13.283Z,3.90
2023-03-01T02:33:40.942Z,4.00
2023-03-01T02:36:15.339Z,3.93
2023-03-01T02:38:43.569Z,3.47
2023-03-01T02:41:13.085Z,4.00
2023-03-01T02:43:40.117Z,3.87
2023-03-01T02:46:21.056Z,4.47
2023-03-01T02:48:55.150Z,3.50
2023-03-01T02:51:34.348Z,4.13
2023-03-01T02:54:26.184Z,3.70
2023-03-01T02:56:54.259Z,3.90
2023-03-01T02:59:28.719Z,3.70
2023-03-01T03:01:55.698Z,3.53
2023-03-01T03:04:22.645Z,2.93
2023-03-01T03:06:52.013Z,3.57
2023-03-01T03:09:19.962Z,3.60
2023-03-01T03:11:47.634Z,4.73
2023-03-01T03:14:17.694Z,3.73
2023-03-01T03:16:51.583Z,3.93
2023-03-01T03:19:20.144Z,3.30
2023-03-01T03:21:47.334Z,3.60
2023-03-01T03:24:14.232Z,3.60
2023-03-01T03:26:41.119Z,3.23
2023-03-01T03:29:08.022Z,3.33
2023-03-01T03:31:35.226Z,3.57
2023-03-01T03:34:02.133Z,3.20
2023-03-01T03:36:29.170Z,3.40
2023-03-01T03:38:56.173Z,2.60
2023-03-01T03:41:23.129Z,3.40
2023-03-01T03:43:50.159Z,3.53
2023-03-01T03:46:17.981Z,3.10
2023-03-01T03:48:46.108Z,3.27
2023-03-01T03:51:15.903Z,2.83
2023-03-01T03:53:43.636Z,2.93
2023-03-01T03:56:12.720Z,3.40
2023-03-01T03:58:39.614Z,3.20
2023-03-01T04:01:06.737Z,3.37
2023-03-01T04:03:35.938Z,2.43
2023-03-01T04:06:05.099Z,2.77
2023-03-01T04:08:32.447Z,3.20
2023-03-01T04:11:22.238Z,3.30
2023-03-01T04:13:49.390Z,2.93
2023-03-01T04:16:16.725Z,3.00
2023-03-01T04:18:43.672Z,2.80
2023-03-01T04:21:12.214Z,3.37
2023-03-01T04:23:40.043Z,3.20
2023-03-01T04:26:06.934Z,3.00
2023-03-01T04:28:36.857Z,2.60
2023-03-01T04:31:14.473Z,3.30
2023-03-01T04:33:44.778Z,2.40
2023-03-01T04:36:13.310Z,3.10
2023-03-01T04:38:40.878Z,3.43
2023-03-01T04:41:11.148Z,3.03
2023-03-01T04:43:38.212Z,3.40
2023-03-01T04:46:10.194Z,3.10
2023-03-01T04:48:39.562Z,2.73
2023-03-01T04:51:07.116Z,3.37
2023-03-01T04:53:34.163Z,2.80
2023-03-01T04:56:01.075Z,3.20
2023-03-01T04:58:29.389Z,2.87
2023-03-01T05:00:56.402Z,3.33
2023-03-01T05:03:23.806Z,3.00
2023-03-01T05:05:53.378Z,3.10
2023-03-01T05:08:21.676Z,3.47
2023-03-01T05:10:53.993Z,3.20
2023-03-01T05:13:22.049Z,3.27
2023-03-01T05:15:56.633Z,2.70
2023-03-01T05:18:27.951Z,3.10
2023-03-01T05:20:57.242Z,3.40
2023-03-01T05:23:24.413Z,2.90
2023-03-01T05:25:53.226Z,3.10
2023-03-01T05:28:21.211Z,4.20
2023-03-01T05:30:48.481Z,2.87
2023-03-01T05:33:15.438Z,3.33
2023-03-01T05:35:44.179Z,2.80
2023-03-01T05:38:15.462Z,3.10
2023-03-01T05:40:48.751Z,3.80
2023-03-01T05:43:17.807Z,3.30
2023-03-01T05:45:45.117Z,3.20
2023-03-01T05:48:13.429Z,4.30
2023-03-01T05:50:45.707Z,3.10
2023-03-01T05:53:17.313Z,2.90
2023-03-01T05:55:45.274Z,2.70
2023-03-01T05:58:16.130Z,2.70
2023-03-01T06:00:45.398Z,2.70
2023-03-01T06:03:14.722Z,2.83
2023-03-01T06:05:42.792Z,3.43
2023-03-01T06:08:12.162Z,3.83
2023-03-01T06:10:39.109Z,3.30
2023-03-01T06:13:06.234Z,3.20
2023-03-01T06:15:33.259Z,2.67
2023-03-01T06:18:00.509Z,2.33
2023-03-01T06:20:29.734Z,2.60
2023-03-01T06:22:57.119Z,2.87
2023-03-01T06:25:26.787Z,3.00
2023-03-01T06:27:53.820Z,3.17
2023-03-01T06:30:24.492Z,3.33
2023-03-01T06:32:51.958Z,3.23
2023-03-01T06:35:20.620Z,4.10
2023-03-01T06:37:48.806Z,3.00
2023-03-01T06:40:17.050Z,3.80
2023-03-01T06:42:50.056Z,3.23
2023-03-01T06:45:19.967Z,3.00
2023-03-01T06:47:47.306Z,3.07
2023-03-01T06:50:15.323Z,4.20
2023-03-01T06:52:42.289Z,4.07
2023-03-01T06:55:09.475Z,3.70
2023-03-01T06:57:36.374Z,3.90
2023-03-01T07:00:05.523Z,3.40
2023-03-01T07:02:32.471Z,3.00
2023-03-01T07:04:59.383Z,3.10
2023-03-01T07:07:26.273Z,3.30
2023-03-01T07:09:54.172Z,2.80
2023-03-01T07:12:21.063Z,4.33
2023-03-01T07:14:47.960Z,4.50
2023-03-01T07:17:14.876Z,4.40
2023-03-01T07:19:41.731Z,4.23
2023-03-01T07:22:11.358Z,8.50
2023-03-01T07:24:38.224Z,6.30
2023-03-01T07:27:05.109Z,24.87
2023-03-01T07:29:32.014Z,29.37
2023-03-01T07:31:59.483Z,18.83
2023-03-01T07:34:26.818Z,8.00
2023-03-01T07:36:53.735Z,5.03
2023-03-01T07:39:20.657Z,4.57
2023-03-01T07:41:47.590Z,4.40
2023-03-01T07:44:14.529Z,4.47
2023-03-01T07:46:41.478Z,3.67
2023-03-01T07:49:08.415Z,4.37
2023-03-01T07:51:35.324Z,3.90
2023-03-01T07:54:02.174Z,4.20
2023-03-01T07:56:29.319Z,4.50
2023-03-01T07:58:56.412Z,6.00
2023-03-01T08:01:23.680Z,5.50
2023-03-01T08:03:50.591Z,6.03
2023-03-01T08:06:18.626Z,5.03
2023-03-01T08:08:46.131Z,5.03
2023-03-01T08:11:15.363Z,4.77
2023-03-01T08:13:42.975Z,5.33
2023-03-01T08:16:15.364Z,4.90
2023-03-01T08:18:43.715Z,5.10
2023-03-01T08:21:14.007Z,5.00
2023-03-01T08:23:41.691Z,3.70
2023-03-01T08:26:21.477Z,4.97
2023-03-01T08:28:49.794Z,3.93
2023-03-01T08:31:30.742Z,4.63
2023-03-01T08:34:01.407Z,5.17
2023-03-01T08:36:41.017Z,4.80
2023-03-01T08:39:09.366Z,5.40
2023-03-01T08:41:36.714Z,5.67
2023-03-01T08:44:04.470Z,5.77
2023-03-01T08:46:38.172Z,5.70
2023-03-01T08:49:09.885Z,5.67
2023-03-01T08:51:39.885Z,5.93
2023-03-01T08:54:12.304Z,4.97
2023-03-01T08:56:39.522Z,5.40
2023-03-01T08:59:06.448Z,5.93
2023-03-01T09:01:33.355Z,5.60
2023-03-01T09:04:00.709Z,4.90
2023-03-01T09:06:27.693Z,5.60
2023-03-01T09:08:55.722Z,4.60
2023-03-01T09:11:23.260Z,5.27
2023-03-01T09:13:51.292Z,5.57
2023-03-01T09:16:20.683Z,5.30
2023-03-01T09:18:52.639Z,5.50
2023-03-01T09:21:37.262Z,4.80
2023-03-01T09:24:07.338Z,5.20
2023-03-01T09:26:34.384Z,4.90
2023-03-01T09:29:01.250Z,4.97
2023-03-01T09:31:28.209Z,5.63
2023-03-01T09:33:55.833Z,5.67
2023-03-01T09:36:26.266Z,6.10
2023-03-01T09:38:56.276Z,5.83
2023-03-01T09:41:50.291Z,6.40
2023-03-01T09:44:31.681Z,6.40
2023-03-01T09:47:00.209Z,5.03
2023-03-01T09:49:31.566Z,7.43
2023-03-01T09:52:16.805Z,7.13
2023-03-01T09:54:43.709Z,7.30
2023-03-01T09:57:19.655Z,9.00
2023-03-01T10:00:11.597Z,8.77
2023-03-01T10:02:57.936Z,8.27
2023-03-01T10:06:08.653Z,8.93
2023-03-01T10:09:02.091Z,9.93
2023-03-01T10:11:38.483Z,9.10
2023-03-01T10:14:47.906Z,8.23
2023-03-01T10:17:38.779Z,9.07
2023-03-01T10:20:43.000Z,9.13
2023-03-01T10:23:10.921Z,7.50
2023-03-01T10:26:21.704Z,8.97
2023-03-01T10:29:11.589Z,9.50
2023-03-01T10:31:48.972Z,9.50
2023-03-01T10:34:32.120Z,9.63
2023-03-01T10:37:16.722Z,12.03
2023-03-01T10:39:57.044Z,9.30
2023-03-01T10:42:31.447Z,11.60
2023-03-01T10:44:59.922Z,13.57
2023-03-01T10:47:28.807Z,13.30
2023-03-01T10:50:06.152Z,15.53
2023-03-01T10:52:38.963Z,16.87
2023-03-01T10:55:17.689Z,15.60
2023-03-01T10:57:44.618Z,15.97
2023-03-01T11:00:23.989Z,16.53
2023-03-01T11:02:59.985Z,16.70
2023-03-01T11:05:30.962Z,18.00
2023-03-01T11:08:00.245Z,16.87
2023-03-01T11:10:30.867Z,19.13
2023-03-01T11:13:30.031Z,18.60
2023-03-01T11:16:03.163Z,20.77
2023-03-01T11:18:46.162Z,17.17
2023-03-01T11:21:16.727Z,17.17
2023-03-01T11:23:46.630Z,21.87
2023-03-01T11:26:14.731Z,20.50
2023-03-01T11:28:43.754Z,18.53
2023-03-01T11:31:13.616Z,17.33
2023-03-01T11:33:55.236Z,19.07
2023-03-01T11:37:04.072Z,19.80
2023-03-01T11:39:50.179Z,17.67
2023-03-01T11:42:25.307Z,17.33
2023-03-01T11:44:56.678Z,18.43
2023-03-01T11:47:59.328Z,19.60
2023-03-01T11:50:43.205Z,17.57
2023-03-01T11:53:31.057Z,16.47
2023-03-01T11:56:18.280Z,17.27
2023-03-01T11:59:12.666Z,16.70
2023-03-01T12:02:14.076Z,17.53
2023-03-01T12:05:16.556Z,18.27
2023-03-01T12:07:59.572Z,17.17
2023-03-01T12:10:30.365Z,18.80
2023-03-01T12:13:39.669Z,18.50
2023-03-01T12:17:03.390Z,17.60
2023-03-01T12:20:20.861Z,15.63
2023-03-01T12:23:30.848Z,14.87
2023-03-01T12:26:30.014Z,15.67
2023-03-01T12:29:15.613Z,16.53
2023-03-01T12:32:36.405Z,17.73
2023-03-01T12:35:18.226Z,16.93
2023-03-01T12:38:14.270Z,20.03
2023-03-01T12:41:22.055Z,17.60
2023-03-01T12:44:11.112Z,17.37
2023-03-01T12:46:57.869Z,19.07
2023-03-01T12:49:45.885Z,20.07
2023-03-01T12:52:23.216Z,19.23
2023-03-01T12:54:52.478Z,16.50
2023-03-01T12:57:37.787Z,19.67
2023-03-01T13:00:11.742Z,17.33
2023-03-01T13:02:50.567Z,17.77
2023-03-01T13:05:41.509Z,17.70
2023-03-01T13:08:42.730Z,17.77
2023-03-01T13:11:20.551Z,17.03
2023-03-01T13:13:49.506Z,15.23
2023-03-01T13:16:41.460Z,16.80
2023-03-01T13:19:33.444Z,17.80
2023-03-01T13:22:00.670Z,17.90
2023-03-01T13:24:43.521Z,21.03
2023-03-01T13:27:30.230Z,17.53
2023-03-01T13:30:04.313Z,19.17
2023-03-01T13:32:44.818Z,20.17
2023-03-01T13:35:20.937Z,18.60
2023-03-01T13:37:48.238Z,18.50
2023-03-01T13:40:19.417Z,17.47
2023-03-01T13:42:56.403Z,18.87
2023-03-01T13:45:40.768Z,17.30
2023-03-01T13:48:23.784Z,19.23
2023-03-01T13:51:01.691Z,19.60
2023-03-01T13:53:38.219Z,18.90
2023-03-01T13:56:34.713Z,17.73
2023-03-01T13:59:07.096Z,18.43
2023-03-01T14:01:37.139Z,19.30
2023-03-01T14:04:24.272Z,17.50
2023-03-01T14:06:51.169Z,18.53
2023-03-01T14:09:26.699Z,17.70
2023-03-01T14:12:45.694Z,16.07
2023-03-01T14:15:49.091Z,14.17
2023-03-01T14:18:31.116Z,15.30
2023-03-01T14:20:58.755Z,15.10
2023-03-01T14:23:27.228Z,17.60
2023-03-01T14:25:56.775Z,17.80
2023-03-01T14:28:31.026Z,18.93
2023-03-01T14:31:00.831Z,19.47
2023-03-01T14:33:42.150Z,19.80
2023-03-01T14:36:14.226Z,18.37
2023-03-01T14:38:46.884Z,15.83
2023-03-01T14:41:24.528Z,16.10
2023-03-01T14:43:58.926Z,14.10
2023-03-01T14:46:35.506Z,16.07
2023-03-01T14:49:07.472Z,15.30
2023-03-01T14:51:42.953Z,16.63
2023-03-01T14:54:44.508Z,15.97
2023-03-01T14:57:22.757Z,14.73
2023-03-01T14:59:53.901Z,14.63
2023-03-01T15:02:25.083Z,17.33
2023-03-01T15:04:57.682Z,14.90
2023-03-01T15:07:32.253Z,16.40
2023-03-01T15:10:00.636Z,15.17
2023-03-01T15:12:30.150Z,15.83
2023-03-01T15:15:04.393Z,16.10
2023-03-01T15:17:35.510Z,16.63
2023-03-01T15:20:07.902Z,16.47
2023-03-01T15:22:36.167Z,17.20
2023-03-01T15:25:03.106Z,18.40
2023-03-01T15:27:29.999Z,17.80
2023-03-01T15:30:00.986Z,16.80
2023-03-01T15:32:40.963Z,17.40
2023-03-01T15:35:44.048Z,16.00
2023-03-01T15:38:33.400Z,16.43
2023-03-01T15:41:21.072Z,17.40
2023-03-01T15:43:48.081Z,17.40
2023-03-01T15:46:36.169Z,17.10
2023-03-01T15:49:06.934Z,16.13
2023-03-01T15:51:38.301Z,16.83
2023-03-01T15:54:27.524Z,17.30
2023-03-01T15:56:54.533Z,15.80
2023-03-01T15:59:23.192Z,15.67
2023-03-01T16:01:50.393Z,14.80
2023-03-01T16:04:23.798Z,15.47
2023-03-01T16:06:55.105Z,13.00
2023-03-01T16:09:26.597Z,14.40
2023-03-01T16:11:54.538Z,13.90
2023-03-01T16:14:21.921Z,14.50
2023-03-01T16:16:49.757Z,13.80
2023-03-01T16:19:17.297Z,14.97
2023-03-01T16:21:47.550Z,12.43
2023-03-01T16:24:15.558Z,13.00
2023-03-01T16:26:43.205Z,12.80
2023-03-01T16:29:10.503Z,12.83
2023-03-01T16:31:37.662Z,14.23
2023-03-01T16:34:04.971Z,13.20
2023-03-01T16:36:31.934Z,15.13
2023-03-01T16:39:01.565Z,12.77
2023-03-01T16:41:29.232Z,14.20
2023-03-01T16:43:56.657Z,14.23
2023-03-01T16:46:31.408Z,15.37
2023-03-01T16:48:58.427Z,15.13
2023-03-01T16:51:26.083Z,15.40
2023-03-01T16:53:53.539Z,13.53
2023-03-01T16:56:20.599Z,13.57
2023-03-01T16:58:47.561Z,15.03
2023-03-01T17:01:20.718Z,14.63
2023-03-01T17:03:49.624Z,12.60
2023-03-01T17:06:21.387Z,13.43
2023-03-01T17:08:48.398Z,13.50
2023-03-01T17:11:18.838Z,15.50
2023-03-01T17:13:46.445Z,15.70
2023-03-01T17:16:17.723Z,15.60
2023-03-01T17:18:45.109Z,16.40
2023-03-01T17:21:12.984Z,17.10
2023-03-01T17:23:44.149Z,16.37
2023-03-01T17:26:11.366Z,14.70
2023-03-01T17:28:38.763Z,15.50
2023-03-01T17:31:07.194Z,15.60
2023-03-01T17:33:34.522Z,17.00
2023-03-01T17:36:01.968Z,17.40
2023-03-01T17:38:28.952Z,16.57
2023-03-01T17:40:59.202Z,17.00
2023-03-01T17:43:26.128Z,13.93
2023-03-01T17:45:54.607Z,18.37
2023-03-01T17:48:21.694Z,17.87
2023-03-01T17:50:48.625Z,17.70
2023-03-01T17:53:15.747Z,18.00
2023-03-01T17:55:44.263Z,18.80
2023-03-01T17:58:14.502Z,20.00
2023-03-01T18:00:41.661Z,19.40
2023-03-01T18:03:08.542Z,19.43
2023-03-01T18:05:37.878Z,19.80
2023-03-01T18:08:05.389Z,18.43
2023-03-01T18:10:34.372Z,19.93
2023-03-01T18:13:01.271Z,19.23
2023-03-01T18:15:28.926Z,17.90
2023-03-01T18:17:56.011Z,19.87
2023-03-01T18:20:22.967Z,21.47
2023-03-01T18:22:50.894Z,21.10
2023-03-01T18:25:17.818Z,20.63
2023-03-01T18:27:44.731Z,21.70
2023-03-01T18:30:13.021Z,20.47
2023-03-01T18:32:39.915Z,21.77
2023-03-01T18:35:08.237Z,20.47
2023-03-01T18:37:35.211Z,23.60
2023-03-01T18:40:02.160Z,20.10
2023-03-01T18:42:29.102Z,25.47
2023-03-01T18:44:55.983Z,23.50
2023-03-01T18:47:22.875Z,28.50
2023-03-01T18:49:49.764Z,24.60
2023-03-01T18:52:16.721Z,23.63
2023-03-01T18:54:44.667Z,22.50
2023-03-01T18:57:11.563Z,22.53
2023-03-01T18:59:38.462Z,21.67
2023-03-01T19:02:05.405Z,22.57
2023-03-01T19:04:32.446Z,24.07
2023-03-01T19:07:02.099Z,21.13
2023-03-01T19:09:29.132Z,23.80
2023-03-01T19:11:58.819Z,22.50
2023-03-01T19:14:25.813Z,23.30
2023-03-01T19:16:53.006Z,25.70
2023-03-01T19:19:19.916Z,23.87
2023-03-01T19:21:56.010Z,22.60
2023-03-01T19:24:31.518Z,24.13
2023-03-01T19:26:58.537Z,25.60
2023-03-01T19:29:26.217Z,24.60
2023-03-01T19:31:53.169Z,24.03
2023-03-01T19:34:22.766Z,25.27
2023-03-01T19:36:49.695Z,23.87
2023-03-01T19:39:16.719Z,26.57
2023-03-01T19:41:44.763Z,25.80
2023-03-01T19:44:12.426Z,24.67
2023-03-01T19:46:40.041Z,24.53
2023-03-01T19:49:07.748Z,23.77
2023-03-01T19:51:36.458Z,22.37
2023-03-01T19:54:05.469Z,23.00
2023-03-01T19:56:32.636Z,21.60
2023-03-01T19:59:00.665Z,23.67
2023-03-01T20:01:29.682Z,23.10
2023-03-01T20:03:56.736Z,21.60
2023-03-01T20:06:25.556Z,23.80
2023-03-01T20:08:53.340Z,29.87
2023-03-01T20:11:21.238Z,30.83
2023-03-01T20:13:48.144Z,32.83
2023-03-01T20:16:20.088Z,33.80
2023-03-01T20:18:47.069Z,30.97
2023-03-01T20:21:23.515Z,28.00
2023-03-01T20:23:51.584Z,30.40
2023-03-01T20:26:21.646Z,31.77
2023-03-01T20:28:51.457Z,30.00
2023-03-01T20:31:21.579Z,29.27
2023-03-01T20:33:48.813Z,29.90
2023-03-01T20:36:15.785Z,30.30
2023-03-01T20:38:42.758Z,30.47
2023-03-01T20:41:13.962Z,31.20
2023-03-01T20:43:43.610Z,31.60
2023-03-01T20:46:13.116Z,29.73
2023-03-01T20:48:43.430Z,31.10
2023-03-01T20:51:12.296Z,30.73
2023-03-01T20:53:39.626Z,30.20
2023-03-01T20:56:09.907Z,29.40
2023-03-01T20:58:36.736Z,28.30
2023-03-01T21:01:07.127Z,30.13
2023-03-01T21:03:34.780Z,31.00
2023-03-01T21:06:04.108Z,27.47
2023-03-01T21:08:31.323Z,26.90
2023-03-01T21:10:58.327Z,29.40
2023-03-01T21:13:27.607Z,28.13
2023-03-01T21:16:07.806Z,29.60
2023-03-01T21:18:36.818Z,35.70
2023-03-01T21:21:13.224Z,31.93
2023-03-01T21:23:41.720Z,30.67
2023-03-01T21:26:25.362Z,28.93
2023-03-01T21:28:57.868Z,29.37
2023-03-01T21:31:28.961Z,31.47
2023-03-01T21:33:59.816Z,32.10
2023-03-01T21:36:29.199Z,29.30
2023-03-01T21:38:56.725Z,30.13
2023-03-01T21:41:30.563Z,26.57
2023-03-01T21:44:03.228Z,27.07
2023-03-01T21:46:34.338Z,31.13
2023-03-01T21:49:02.574Z,28.10
2023-03-01T21:51:30.528Z,29.20
2023-03-01T21:53:59.459Z,26.90
2023-03-01T21:56:29.696Z,28.40
2023-03-01T21:58:58.624Z,27.80
2023-03-01T22:01:27.829Z,31.80
2023-03-01T22:03:56.538Z,34.00
2023-03-01T22:06:35.008Z,27.60
2023-03-01T22:09:06.750Z,26.57
2023-03-01T22:11:37.842Z,32.00
2023-03-01T22:14:04.924Z,27.07
2023-03-01T22:16:35.293Z,29.50
2023-03-01T22:19:03.789Z,29.53
2023-03-01T22:21:30.859Z,26.87
2023-03-01T22:23:57.990Z,26.57
2023-03-01T22:26:31.160Z,22.27
2023-03-01T22:29:01.732Z,27.50
2023-03-01T22:31:29.314Z,25.20
2023-03-01T22:33:58.168Z,23.53
2023-03-01T22:36:25.808Z,26.33
2023-03-01T22:38:59.294Z,26.43
2023-03-01T22:41:38.414Z,20.70
2023-03-01T22:44:05.464Z,20.20
2023-03-01T22:46:32.929Z,25.80
2023-03-01T22:49:00.138Z,19.87
2023-03-01T22:51:31.348Z,18.37
2023-03-01T22:53:58.437Z,20.37
2023-03-01T22:56:29.365Z,25.57
2023-03-01T22:59:03.982Z,21.30
2023-03-01T23:01:31.808Z,27.93
2023-03-01T23:03:58.759Z,25.03
2023-03-01T23:06:25.667Z,26.80
2023-03-01T23:08:55.175Z,27.40
2023-03-01T23:11:24.026Z,27.93
2023-03-01T23:13:51.714Z,26.70
2023-03-01T23:16:19.040Z,24.70
2023-03-01T23:18:46.276Z,26.37
2023-03-01T23:21:16.875Z,24.30
2023-03-01T23:23:46.378Z,25.80
2023-03-01T23:26:15.238Z,24.10
2023-03-01T23:28:42.633Z,24.97
2023-03-01T23:31:13.814Z,24.97
2023-03-01T23:33:44.372Z,27.23
2023-03-01T23:36:20.734Z,23.60
2023-03-01T23:38:50.206Z,28.50
2023-03-01T23:41:20.672Z,24.83
2023-03-01T23:43:50.754Z,22.63
2023-03-01T23:46:20.428Z,23.77
2023-03-01T23:48:48.053Z,25.23
2023-03-01T23:51:17.649Z,28.23
2023-03-01T23:53:54.436Z,24.07
2023-03-01T23:56:33.000Z,25.97
2023-03-01T23:59:03.425Z,26.27
